createdAt,value
2023-05-05T00:00:41.556Z,13.03
2023-05-05T00:03:28.956Z,13.06
2023-05-05T00:06:16.250Z,13.07
2023-05-05T00:09:03.217Z,13.06
2023-05-05T00:11:49.950Z,13.06
2023-05-05T00:14:36.579Z,13.04
2023-05-05T00:17:23.512Z,13.01
2023-05-05T00:20:10.990Z,12.94
2023-05-05T00:22:58.042Z,12.84
2023-05-05T00:25:44.811Z,12.77
2023-05-05T00:28:31.772Z,12.72
2023-05-05T00:31:22.124Z,12.69
2023-05-05T00:34:10.147Z,12.64
2023-05-05T00:36:56.914Z,12.60
2023-05-05T00:39:44.858Z,12.53
2023-05-05T00:42:46.527Z,12.45
2023-05-05T00:45:33.295Z,12.37
2023-05-05T00:48:24.501Z,12.29
2023-05-05T00:51:11.393Z,12.15
2023-05-05T00:53:58.486Z,12.06
2023-05-05T00:56:45.992Z,11.96
2023-05-05T00:59:34.399Z,11.88
2023-05-05T01:02:23.027Z,11.80
2023-05-05T01:05:11.266Z,11.74
2023-05-05T01:08:21.200Z,11.68
2023-05-05T01:11:17.293Z,11.60
2023-05-05T01:14:18.367Z,11.53
2023-05-05T01:17:18.594Z,11.50
2023-05-05T01:20:23.608Z,11.42
2023-05-05T01:23:39.281Z,11.33
2023-05-05T01:26:38.910Z,11.26
2023-05-05T01:29:41.515Z,11.21
2023-05-05T01:32:31.889Z,11.17
2023-05-05T01:35:29.977Z,11.16
2023-05-05T01:38:26.428Z,11.10
2023-05-05T01:41:25.590Z,11.07
2023-05-05T01:44:14.805Z,11.04
2023-05-05T01:47:02.785Z,11.01
2023-05-05T01:49:51.605Z,10.97
2023-05-05T01:52:40.205Z,10.92
2023-05-05T01:55:29.328Z,10.87
2023-05-05T01:58:17.400Z,10.83
2023-05-05T02:01:05.688Z,10.77
2023-05-05T02:03:55.117Z,10.73
2023-05-05T02:06:44.445Z,10.69
2023-05-05T02:09:32.937Z,10.67
2023-05-05T02:12:21.978Z,10.62
2023-05-05T02:15:11.340Z,10.62
2023-05-05T02:18:00.434Z,10.62
2023-05-05T02:20:47.962Z,10.58
2023-05-05T02:23:36.448Z,10.50
2023-05-05T02:26:24.866Z,10.46
2023-05-05T02:29:18.187Z,10.40
2023-05-05T02:32:11.511Z,10.32
2023-05-05T02:37:02.700Z,10.32
2023-05-05T02:39:58.352Z,10.28
2023-05-05T02:42:47.889Z,10.26
2023-05-05T02:45:34.070Z,10.25
2023-05-05T02:48:20.673Z,10.23
2023-05-05T02:51:07.653Z,10.22
2023-05-05T02:53:55.808Z,10.18
2023-05-05T02:56:48.434Z,10.17
2023-05-05T02:59:48.125Z,10.14
2023-05-05T03:03:05.203Z,10.12
2023-05-05T03:06:01.687Z,10.12
2023-05-05T03:09:04.872Z,10.10
2023-05-05T03:12:04.014Z,10.10
2023-05-05T03:14:58.197Z,10.12
2023-05-05T03:17:46.813Z,10.14
2023-05-05T03:20:35.101Z,10.13
2023-05-05T03:23:25.017Z,10.11
2023-05-05T03:26:18.607Z,10.11
2023-05-05T03:29:08.176Z,10.10
2023-05-05T03:31:58.866Z,10.10
2023-05-05T03:34:45.873Z,10.13
2023-05-05T03:37:32.989Z,10.19
2023-05-05T03:40:23.523Z,10.25
2023-05-05T03:43:17.458Z,10.32
2023-05-05T03:46:04.722Z,10.40
2023-05-05T03:48:53.583Z,10.45
2023-05-05T03:51:41.474Z,10.51
2023-05-05T03:54:28.724Z,10.58
2023-05-05T03:57:17.009Z,10.63
2023-05-05T04:00:04.034Z,10.69
2023-05-05T04:03:01.395Z,10.78
2023-05-05T04:05:48.544Z,10.89
2023-05-05T04:08:36.247Z,11.02
2023-05-05T04:11:22.959Z,11.17
2023-05-05T04:14:10.604Z,11.29
2023-05-05T04:16:57.504Z,11.40
2023-05-05T04:19:44.762Z,11.48
2023-05-05T04:22:33.989Z,11.57
2023-05-05T04:25:23.484Z,11.66
2023-05-05T04:28:10.530Z,11.75
2023-05-05T04:31:32.865Z,11.84
2023-05-05T04:34:19.810Z,11.98
2023-05-05T04:37:07.131Z,12.09
2023-05-05T04:39:55.180Z,12.23
2023-05-05T04:42:42.067Z,12.37
2023-05-05T04:45:29.672Z,12.50
2023-05-05T04:48:16.804Z,12.64
2023-05-05T04:51:12.369Z,12.75
2023-05-05T04:54:01.039Z,12.82
2023-05-05T04:56:48.286Z,12.91
2023-05-05T04:59:35.112Z,13.00
2023-05-05T05:02:22.423Z,13.07
2023-05-05T05:05:11.824Z,13.15
2023-05-05T05:07:59.753Z,13.23
2023-05-05T05:10:46.746Z,13.30
2023-05-05T05:13:33.926Z,13.39
2023-05-05T05:16:21.696Z,13.46
2023-05-05T05:19:09.085Z,13.56
2023-05-05T05:22:01.657Z,13.66
2023-05-05T05:24:49.638Z,13.77
2023-05-05T05:27:39.575Z,13.88
2023-05-05T05:30:54.070Z,14.01
2023-05-05T05:33:41.866Z,14.10
2023-05-05T05:36:29.632Z,14.20
2023-05-05T05:39:16.218Z,14.29
2023-05-05T05:42:03.773Z,14.35
2023-05-05T05:44:53.185Z,14.40
2023-05-05T05:47:40.097Z,14.46
2023-05-05T05:50:28.793Z,14.52
2023-05-05T05:53:16.286Z,14.58
2023-05-05T05:56:05.169Z,14.64
2023-05-05T05:58:52.172Z,14.73
2023-05-05T06:01:40.755Z,14.80
2023-05-05T06:04:31.701Z,14.87
2023-05-05T06:07:18.889Z,14.96
2023-05-05T06:10:25.160Z,15.04
2023-05-05T06:13:14.486Z,15.15
2023-05-05T06:16:06.768Z,15.27
2023-05-05T06:18:54.655Z,15.36
2023-05-05T06:21:41.770Z,15.45
2023-05-05T06:24:29.353Z,15.51
2023-05-05T06:27:19.752Z,15.59
2023-05-05T06:30:09.857Z,15.64
2023-05-05T06:32:57.156Z,15.68
2023-05-05T06:35:45.961Z,15.72
2023-05-05T06:38:32.755Z,15.76
2023-05-05T06:41:19.728Z,15.85
2023-05-05T06:44:07.479Z,15.96
2023-05-05T06:46:54.297Z,16.05
2023-05-05T06:49:44.136Z,16.10
2023-05-05T06:52:31.292Z,16.19
2023-05-05T06:55:18.060Z,16.35
2023-05-05T06:58:05.033Z,16.54
2023-05-05T07:00:52.364Z,16.72
2023-05-05T07:03:40.732Z,16.90
2023-05-05T07:06:28.277Z,17.06
2023-05-05T07:09:17.025Z,17.20
2023-05-05T07:12:05.294Z,17.32
2023-05-05T07:14:53.671Z,17.47
2023-05-05T07:17:40.954Z,17.61
2023-05-05T07:20:28.832Z,17.72
2023-05-05T07:23:21.109Z,17.89
2023-05-05T07:26:22.076Z,18.07
2023-05-05T07:29:10.865Z,18.20
2023-05-05T07:31:58.006Z,18.32
2023-05-05T07:34:47.004Z,18.44
2023-05-05T07:37:40.323Z,18.57
2023-05-05T07:40:27.003Z,18.64
2023-05-05T07:43:18.611Z,18.70
2023-05-05T07:51:17.046Z,19.26
2023-05-05T07:54:11.056Z,19.40
2023-05-05T07:56:59.066Z,19.51
2023-05-05T07:59:45.801Z,19.53
2023-05-05T08:02:32.629Z,19.48
2023-05-05T08:05:20.163Z,19.45
2023-05-05T08:08:07.516Z,19.52
2023-05-05T08:10:58.509Z,19.65
2023-05-05T08:13:49.055Z,19.75
2023-05-05T08:16:36.128Z,19.73
2023-05-05T08:19:29.337Z,19.65
2023-05-05T08:22:16.587Z,19.62
2023-05-05T08:25:03.376Z,19.67
2023-05-05T08:27:50.588Z,19.73
2023-05-05T08:30:37.281Z,19.80
2023-05-05T08:33:35.573Z,19.86
2023-05-05T08:36:22.479Z,20.02
2023-05-05T08:39:09.194Z,20.17
2023-05-05T08:41:58.578Z,20.30
2023-05-05T08:44:45.720Z,20.41
2023-05-05T08:47:46.914Z,20.46
2023-05-05T08:50:44.271Z,20.41
2023-05-05T08:53:50.225Z,20.35
2023-05-05T08:56:41.832Z,20.35
2023-05-05T08:59:31.658Z,20.36
2023-05-05T09:02:23.915Z,20.37
2023-05-05T09:05:11.366Z,20.38
2023-05-05T09:07:58.641Z,20.42
2023-05-05T09:10:53.449Z,20.48
2023-05-05T09:13:47.668Z,20.57
2023-05-05T09:16:34.358Z,20.61
2023-05-05T09:20:22.117Z,20.62
2023-05-05T09:23:50.634Z,20.69
2023-05-05T09:26:59.022Z,20.87
2023-05-05T09:38:25.652Z,21.11
2023-05-05T09:41:15.901Z,21.12
2023-05-05T09:44:03.358Z,21.26
2023-05-05T09:46:52.049Z,21.37
2023-05-05T09:49:39.457Z,21.46
2023-05-05T09:52:28.008Z,21.60
2023-05-05T09:55:18.256Z,21.79
2023-05-05T09:58:20.857Z,21.90
2023-05-05T10:01:22.891Z,21.93
2023-05-05T10:04:30.344Z,22.01
2023-05-05T10:07:26.582Z,22.16
2023-05-05T10:10:17.706Z,22.15
2023-05-05T10:13:04.828Z,22.16
2023-05-05T10:15:54.692Z,22.35
2023-05-05T10:18:46.739Z,22.58
2023-05-05T10:21:38.011Z,22.73
2023-05-05T10:24:38.991Z,22.76
2023-05-05T10:31:02.187Z,22.74
2023-05-05T10:33:55.677Z,22.77
2023-05-05T10:36:43.146Z,22.89
2023-05-05T10:42:42.380Z,23.10
2023-05-05T10:45:29.438Z,23.18
2023-05-05T10:48:27.136Z,23.26
2023-05-05T10:51:40.593Z,23.33
2023-05-05T10:54:42.645Z,23.40
2023-05-05T10:58:00.604Z,23.50
2023-05-05T11:00:50.022Z,23.58
2023-05-05T11:03:37.163Z,23.66
2023-05-05T11:06:27.193Z,23.74
2023-05-05T11:09:31.948Z,23.70
2023-05-05T11:12:18.928Z,23.72
2023-05-05T11:15:28.492Z,23.76
2023-05-05T11:18:36.052Z,23.78
2023-05-05T11:21:22.717Z,23.82
2023-05-05T11:24:39.874Z,23.87
2023-05-05T11:28:04.334Z,23.88
2023-05-05T11:30:58.244Z,24.00
2023-05-05T11:33:53.809Z,24.14
2023-05-05T11:36:41.045Z,24.23
2023-05-05T11:39:34.485Z,24.27
2023-05-05T11:42:30.280Z,24.40
2023-05-05T11:45:25.074Z,24.50
2023-05-05T11:51:38.590Z,24.60
2023-05-05T11:54:50.293Z,24.67
2023-05-05T12:01:08.596Z,24.83
2023-05-05T12:04:03.231Z,24.90
2023-05-05T12:07:14.347Z,25.17
2023-05-05T12:10:01.857Z,25.38
2023-05-05T12:12:49.543Z,25.26
2023-05-05T12:15:37.051Z,25.42
2023-05-05T12:18:25.578Z,25.76
2023-05-05T12:21:35.634Z,26.12
2023-05-05T12:24:23.238Z,26.49
2023-05-05T12:27:19.528Z,26.87
2023-05-05T12:30:14.020Z,27.21
2023-05-05T12:33:03.894Z,27.23
2023-05-05T12:35:51.436Z,27.12
2023-05-05T12:38:39.013Z,27.17
2023-05-05T12:41:26.121Z,27.49
2023-05-05T12:44:12.904Z,27.69
2023-05-05T12:46:59.757Z,27.46
2023-05-05T12:49:51.759Z,27.00
2023-05-05T12:52:45.318Z,26.72
2023-05-05T12:55:40.122Z,26.94
2023-05-05T12:58:28.010Z,27.05
2023-05-05T13:01:14.716Z,27.43
2023-05-05T13:04:06.488Z,27.71
2023-05-05T13:07:14.899Z,27.42
2023-05-05T13:10:10.882Z,27.04
2023-05-05T13:12:58.554Z,26.65
2023-05-05T13:15:47.556Z,26.21
2023-05-05T13:18:48.506Z,26.10
2023-05-05T13:21:35.220Z,26.03
2023-05-05T13:24:34.446Z,25.87
2023-05-05T13:27:24.988Z,25.51
2023-05-05T13:30:12.445Z,25.61
2023-05-05T13:32:59.484Z,26.02
2023-05-05T13:35:46.511Z,26.52
2023-05-05T13:38:33.450Z,26.60
2023-05-05T13:41:20.573Z,26.30
2023-05-05T13:44:07.867Z,25.92
2023-05-05T13:46:55.311Z,26.35
2023-05-05T13:49:42.438Z,26.96
2023-05-05T13:52:31.587Z,27.48
2023-05-05T13:55:21.092Z,28.13
2023-05-05T13:58:08.272Z,28.39
2023-05-05T14:00:55.510Z,28.05
2023-05-05T14:03:42.725Z,27.46
2023-05-05T14:06:32.605Z,27.33
2023-05-05T14:09:19.769Z,27.69
2023-05-05T14:12:06.751Z,28.03
2023-05-05T14:14:54.814Z,28.24
2023-05-05T14:17:41.745Z,28.49
2023-05-05T14:20:28.631Z,28.53
2023-05-05T14:23:15.377Z,28.75
2023-05-05T14:26:02.171Z,28.96
2023-05-05T14:28:49.932Z,29.03
2023-05-05T14:31:37.034Z,29.16
2023-05-05T14:34:24.030Z,29.29
2023-05-05T14:37:10.895Z,29.46
2023-05-05T14:39:58.431Z,29.51
2023-05-05T14:42:45.077Z,29.50
2023-05-05T14:45:32.660Z,29.60
2023-05-05T14:48:22.494Z,29.75
2023-05-05T14:51:09.787Z,29.74
2023-05-05T14:53:56.568Z,29.87
2023-05-05T14:56:45.046Z,29.85
2023-05-05T14:59:33.643Z,29.78
2023-05-05T15:02:20.809Z,29.67
2023-05-05T15:05:08.483Z,29.65
2023-05-05T15:07:58.679Z,29.66
2023-05-05T15:10:47.002Z,29.81
2023-05-05T15:13:34.026Z,29.86
2023-05-05T15:16:21.317Z,29.92
2023-05-05T15:19:07.991Z,29.88
2023-05-05T15:21:55.588Z,29.85
2023-05-05T15:24:42.357Z,29.66
2023-05-05T15:27:31.877Z,28.98
2023-05-05T15:30:18.723Z,28.16
2023-05-05T15:33:05.839Z,27.29
2023-05-05T15:35:52.832Z,26.49
2023-05-05T15:38:44.614Z,25.80
2023-05-05T15:41:33.750Z,25.36
2023-05-05T15:44:20.559Z,24.79
2023-05-05T15:47:07.707Z,24.40
2023-05-05T15:49:54.866Z,23.99
2023-05-05T15:52:42.468Z,23.59
2023-05-05T15:55:58.923Z,23.36
2023-05-05T15:58:45.719Z,23.10
2023-05-05T16:01:33.789Z,22.82
2023-05-05T16:04:20.850Z,22.64
2023-05-05T16:07:07.848Z,22.46
2023-05-05T16:09:57.651Z,22.29
2023-05-05T16:12:44.888Z,22.12
2023-05-05T16:15:31.396Z,21.92
2023-05-05T16:18:18.825Z,21.77
2023-05-05T16:21:05.736Z,21.65
2023-05-05T16:23:52.489Z,21.49
2023-05-05T16:26:40.423Z,21.28
2023-05-05T16:36:29.769Z,20.62
2023-05-05T16:46:55.562Z,19.91
2023-05-05T16:57:43.841Z,19.29
2023-05-05T17:04:12.034Z,18.82
2023-05-05T17:07:05.256Z,18.63
2023-05-05T17:10:03.978Z,18.46
2023-05-05T17:13:15.761Z,18.29
2023-05-05T17:16:02.907Z,18.19
2023-05-05T17:18:49.741Z,18.08
2023-05-05T17:21:36.580Z,17.98
2023-05-05T17:24:24.171Z,17.79
2023-05-05T17:27:11.047Z,17.70
2023-05-05T17:29:58.877Z,17.55
2023-05-05T17:32:46.292Z,17.45
2023-05-05T17:35:34.447Z,17.34
2023-05-05T17:38:21.476Z,17.27
2023-05-05T17:41:08.030Z,17.19
2023-05-05T17:43:55.146Z,17.11
2023-05-05T17:46:42.170Z,17.02
2023-05-05T17:49:29.215Z,16.91
2023-05-05T17:52:16.334Z,16.84
2023-05-05T17:55:03.231Z,16.75
2023-05-05T17:57:50.406Z,16.68
2023-05-05T18:00:37.018Z,16.59
2023-05-05T18:03:23.984Z,16.52
2023-05-05T18:06:11.173Z,16.41
2023-05-05T18:08:58.228Z,16.34
2023-05-05T18:11:44.704Z,16.23
2023-05-05T18:14:31.894Z,16.06
2023-05-05T18:17:18.549Z,15.94
2023-05-05T18:20:07.185Z,15.86
2023-05-05T18:22:53.850Z,15.75
2023-05-05T18:25:41.646Z,15.60
2023-05-05T18:28:28.716Z,15.49
2023-05-05T18:34:44.210Z,15.34
2023-05-05T18:37:31.371Z,15.32
2023-05-05T18:40:42.028Z,15.25
2023-05-05T18:46:53.771Z,15.03
2023-05-05T18:50:05.501Z,14.92
2023-05-05T18:56:17.790Z,14.69
2023-05-05T19:02:31.060Z,14.57
2023-05-05T19:05:19.297Z,14.47
2023-05-05T19:08:07.869Z,14.39
2023-05-05T19:10:54.369Z,14.28
2023-05-05T19:13:41.429Z,14.16
2023-05-05T19:16:29.322Z,14.02
2023-05-05T19:19:17.209Z,13.95
2023-05-05T19:22:04.313Z,13.92
2023-05-05T19:24:51.363Z,13.85
2023-05-05T19:27:39.156Z,13.76
2023-05-05T19:30:27.028Z,13.72
2023-05-05T19:33:15.771Z,13.72
2023-05-05T19:36:02.935Z,13.69
2023-05-05T19:38:49.819Z,13.65
2023-05-05T19:41:36.527Z,13.57
2023-05-05T19:44:23.872Z,13.52
2023-05-05T19:47:12.344Z,13.51
2023-05-05T19:49:59.229Z,13.51
2023-05-05T19:52:46.055Z,13.52
2023-05-05T19:55:33.286Z,13.50
2023-05-05T19:58:20.387Z,13.54
2023-05-05T20:01:08.540Z,13.58
2023-05-05T20:03:57.092Z,13.56
2023-05-05T20:06:44.047Z,13.56
2023-05-05T20:09:31.009Z,13.51
2023-05-05T20:12:19.966Z,13.45
2023-05-05T20:15:07.681Z,13.42
2023-05-05T20:17:55.077Z,13.38
2023-05-05T20:20:42.213Z,13.38
2023-05-05T20:23:29.338Z,13.37
2023-05-05T20:26:17.098Z,13.36
2023-05-05T20:29:04.993Z,13.30
2023-05-05T20:31:51.872Z,13.27
2023-05-05T20:34:39.407Z,13.23
2023-05-05T20:37:27.263Z,13.20
2023-05-05T20:40:14.505Z,13.18
2023-05-05T20:43:01.114Z,13.15
2023-05-05T20:45:47.825Z,13.14
2023-05-05T20:48:34.672Z,13.13
2023-05-05T20:51:21.653Z,13.12
2023-05-05T20:54:10.296Z,13.12
2023-05-05T20:56:58.789Z,13.12
2023-05-05T20:59:45.956Z,13.15
2023-05-05T21:02:33.063Z,13.18
2023-05-05T21:05:20.146Z,13.17
2023-05-05T21:08:08.125Z,13.17
2023-05-05T21:10:55.368Z,13.12
2023-05-05T21:13:42.629Z,13.08
2023-05-05T21:16:29.472Z,13.00
2023-05-05T21:19:16.903Z,12.87
2023-05-05T21:22:04.551Z,12.81
2023-05-05T21:24:51.539Z,12.71
2023-05-05T21:27:38.374Z,12.64
2023-05-05T21:30:25.755Z,12.59
2023-05-05T21:33:13.332Z,12.52
2023-05-05T21:36:00.199Z,12.53
2023-05-05T21:38:47.181Z,12.45
2023-05-05T21:41:33.838Z,12.37
2023-05-05T21:44:21.075Z,12.31
2023-05-05T21:47:07.936Z,12.24
2023-05-05T21:49:54.627Z,12.22
2023-05-05T21:52:41.590Z,12.22
2023-05-05T21:55:28.332Z,12.23
2023-05-05T21:58:16.571Z,12.26
2023-05-05T22:01:03.813Z,12.35
2023-05-05T22:03:51.174Z,12.42
2023-05-05T22:06:38.165Z,12.47
2023-05-05T22:09:52.597Z,12.54
2023-05-05T22:12:39.290Z,12.58
2023-05-05T22:15:29.973Z,12.63
2023-05-05T22:18:19.768Z,12.67
2023-05-05T22:21:06.837Z,12.70
2023-05-05T22:23:53.795Z,12.71
2023-05-05T22:26:43.347Z,12.70
2023-05-05T22:29:30.717Z,12.69
2023-05-05T22:32:17.556Z,12.68
2023-05-05T22:35:05.937Z,12.65
2023-05-05T22:37:52.861Z,12.62
2023-05-05T22:40:40.059Z,12.61
2023-05-05T22:43:27.020Z,12.59
2023-05-05T22:46:15.276Z,12.53
2023-05-05T22:49:02.029Z,12.48
2023-05-05T22:51:49.065Z,12.40
2023-05-05T22:54:36.185Z,12.33
2023-05-05T22:57:24.823Z,12.36
2023-05-05T23:00:28.746Z,12.39
2023-05-05T23:03:15.649Z,12.44
2023-05-05T23:06:02.474Z,12.45
2023-05-05T23:08:49.356Z,12.46
2023-05-05T23:11:35.908Z,12.49
2023-05-05T23:14:22.714Z,12.52
2023-05-05T23:17:09.858Z,12.53
2023-05-05T23:19:57.009Z,12.52
2023-05-05T23:22:43.819Z,12.47
2023-05-05T23:25:30.820Z,12.43
2023-05-05T23:28:18.809Z,12.39
2023-05-05T23:31:06.163Z,12.37
2023-05-05T23:33:52.979Z,12.38
2023-05-05T23:36:39.918Z,12.41
2023-05-05T23:39:26.738Z,12.43
2023-05-05T23:42:13.642Z,12.46
2023-05-05T23:45:00.958Z,12.54
2023-05-05T23:47:47.890Z,12.64
2023-05-05T23:50:34.739Z,12.73
2023-05-05T23:53:21.678Z,12.81
2023-05-05T23:56:08.974Z,12.88
2023-05-05T23:58:56.292Z,12.95
